Time;durP1;ratioP1;P1;durP2;ratioP2;P2;SDS_P1;SDS_P2;PMS_P1;PMS_P2;Temp;Humidity;BMP_temperature;BMP_pressure;BME280_temperature;BME280_humidity;BME280_pressure;Samples;Min_cycle;Max_cycle;Signal;HPM_P1;HPM_P2
2022/04/04 00:00:54;;;;;;;4.00;2.87;;;3.90;99.90;;;;;;5120864;28;20398;-79
2022/04/04 00:03:20;;;;;;;5.40;3.20;;;4.50;99.90;;;;;;5123054;28;20710;-79
2022/04/04 00:05:47;;;;;;;3.87;2.57;;;3.90;99.90;;;;;;5096677;28;20065;-79
2022/04/04 00:08:13;;;;;;;4.30;3.00;;;3.80;99.90;;;;;;5111497;27;20281;-79
2022/04/04 00:10:39;;;;;;;5.53;2.53;;;4.20;99.90;;;;;;5108997;28;20048;-79
2022/04/04 00:13:05;;;;;;;3.70;2.37;;;4.00;99.90;;;;;;5118615;28;20035;-79
2022/04/04 00:15:30;;;;;;;4.28;2.70;;;4.00;99.90;;;;;;5116918;28;20319;-79
2022/04/04 00:17:56;;;;;;;7.77;3.30;;;4.00;99.90;;;;;;5109127;28;20790;-79
2022/04/04 00:20:22;;;;;;;6.78;3.38;;;4.40;99.90;;;;;;5118689;28;20320;-79
2022/04/04 00:22:48;;;;;;;8.32;2.38;;;3.80;99.90;;;;;;5119093;27;20071;-79
2022/04/04 00:25:14;;;;;;;5.38;3.10;;;4.00;99.90;;;;;;5121738;27;20035;-79
2022/04/04 00:27:40;;;;;;;5.43;2.83;;;4.30;99.90;;;;;;5106805;28;20039;-79
2022/04/04 00:30:07;;;;;;;6.65;3.35;;;3.90;99.90;;;;;;5118501;27;20417;-79
2022/04/04 00:32:33;;;;;;;5.07;2.90;;;3.80;99.90;;;;;;5109770;27;20122;-79
2022/04/04 00:35:00;;;;;;;6.35;2.60;;;3.90;99.90;;;;;;5103585;27;20044;-79
2022/04/04 00:37:26;;;;;;;;;;;3.90;99.90;;;;;;5118978;27;20047;-80
2022/04/04 00:39:51;;;;;;;3.53;2.88;;;4.00;99.90;;;;;;5124342;27;19919;-79
2022/04/04 00:42:17;;;;;;;7.13;3.17;;;4.00;99.90;;;;;;5105813;28;20086;-79
2022/04/04 00:44:45;;;;;;;5.30;3.50;;;4.00;99.90;;;;;;5115480;27;20414;-80
2022/04/04 00:47:11;;;;;;;5.75;3.38;;;4.40;99.90;;;;;;5117955;27;20044;-79
2022/04/04 00:49:37;;;;;;;5.15;3.50;;;4.60;99.90;;;;;;5117515;27;20036;-79
2022/04/04 00:52:03;;;;;;;7.50;3.80;;;3.90;99.90;;;;;;5129372;27;20035;-79
2022/04/04 00:54:29;;;;;;;6.38;3.58;;;4.00;99.90;;;;;;5125424;27;20048;-80
2022/04/04 00:56:56;;;;;;;6.57;3.85;;;4.10;99.90;;;;;;5103312;27;20066;-79
2022/04/04 00:59:23;;;;;;;6.68;3.33;;;4.20;99.90;;;;;;5120903;27;20035;-79
2022/04/04 01:01:49;;;;;;;7.82;3.53;;;4.50;99.90;;;;;;5109952;27;20045;-79
2022/04/04 01:04:16;;;;;;;4.03;2.92;;;4.20;99.90;;;;;;5117523;27;20050;-79
2022/04/04 01:06:43;;;;;;;;;;;4.50;99.90;;;;;;5111305;27;20063;-80
2022/04/04 01:09:14;;;;;;;5.50;3.63;;;4.50;99.90;;;;;;5129823;27;19915;-78
2022/04/04 01:12:02;;;;;;;6.95;3.65;;;4.70;99.90;;;;;;5119553;27;20052;-79
2022/04/04 01:14:28;;;;;;;6.38;4.22;;;4.30;99.90;;;;;;5118623;27;20101;-79
2022/04/04 01:16:54;;;;;;;7.22;4.00;;;4.30;99.90;;;;;;5121432;27;20101;-78
2022/04/04 01:19:20;;;;;;;7.25;4.05;;;4.30;99.90;;;;;;5122947;27;20043;-79
2022/04/04 01:21:45;;;;;;;8.07;4.70;;;4.30;99.90;;;;;;5118513;27;20487;-79
2022/04/04 01:24:21;;;;;;;8.50;4.47;;;4.50;99.90;;;;;;5129697;27;20341;-78
2022/04/04 01:26:52;;;;;;;7.72;4.53;;;4.50;99.90;;;;;;5114885;27;20032;-79
2022/04/04 01:29:20;;;;;;;9.27;4.88;;;4.50;99.90;;;;;;5099422;28;20039;-79
2022/04/04 01:31:47;;;;;;;11.65;5.68;;;4.60;99.90;;;;;;5130289;27;20381;-79
2022/04/04 01:34:12;;;;;;;8.25;5.55;;;4.60;99.90;;;;;;5121132;27;20046;-79
2022/04/04 01:36:38;;;;;;;10.68;5.97;;;4.60;99.90;;;;;;5120779;27;20139;-79
2022/04/04 01:39:04;;;;;;;8.57;5.73;;;4.70;99.90;;;;;;5109334;27;22394;-79
2022/04/04 01:41:30;;;;;;;13.73;6.10;;;4.60;99.90;;;;;;5123247;27;20289;-79
2022/04/04 01:43:56;;;;;;;9.18;5.93;;;4.50;99.90;;;;;;5117850;27;20115;-79
2022/04/04 01:46:25;;;;;;;10.93;6.85;;;4.60;99.90;;;;;;5117311;27;20031;-80
2022/04/04 01:48:52;;;;;;;14.27;7.32;;;4.70;99.90;;;;;;5124934;27;20537;-80
2022/04/04 01:51:18;;;;;;;12.98;7.38;;;4.60;99.90;;;;;;5103537;28;20099;-79
2022/04/04 01:53:45;;;;;;;10.85;6.63;;;5.00;99.90;;;;;;5121223;27;20038;-79
2022/04/04 01:56:11;;;;;;;12.40;7.55;;;4.80;99.90;;;;;;5110991;28;20039;-79
2022/04/04 01:58:38;;;;;;;12.20;7.35;;;4.70;99.90;;;;;;5116539;27;20115;-79
2022/04/04 02:01:10;;;;;;;13.32;7.47;;;4.80;99.90;;;;;;5114010;27;20221;-79
2022/04/04 02:03:36;;;;;;;13.98;8.38;;;4.80;99.90;;;;;;5119591;27;20042;-79
2022/04/04 02:06:02;;;;;;;15.80;7.80;;;4.80;99.90;;;;;;5110907;28;20093;-79
2022/04/04 02:08:29;;;;;;;13.73;8.05;;;4.80;99.90;;;;;;5127777;27;20359;-79
2022/04/04 02:10:56;;;;;;;15.30;8.68;;;4.90;99.90;;;;;;5118885;27;20046;-79
2022/04/04 02:13:25;;;;;;;;;;;4.70;99.90;;;;;;5119316;27;20041;-79
2022/04/04 02:15:55;;;;;;;17.27;8.82;;;4.90;99.90;;;;;;5125440;27;20386;-80
2022/04/04 02:18:21;;;;;;;15.52;8.65;;;4.80;99.90;;;;;;5122491;27;20114;-79
2022/04/04 02:20:47;;;;;;;14.27;8.57;;;5.20;99.90;;;;;;5115877;27;20420;-80
2022/04/04 02:23:17;;;;;;;13.73;8.88;;;4.80;99.90;;;;;;5114237;27;20270;-80
2022/04/04 02:25:44;;;;;;;15.18;9.13;;;4.90;99.90;;;;;;5115917;27;20506;-79
2022/04/04 02:28:11;;;;;;;16.48;9.00;;;4.90;99.90;;;;;;5123156;27;20371;-79
2022/04/04 02:30:36;;;;;;;15.13;9.48;;;4.90;99.90;;;;;;5123659;27;20050;-79
2022/04/04 02:33:02;;;;;;;16.80;9.13;;;4.90;99.90;;;;;;5118911;27;20043;-79
2022/04/04 02:35:29;;;;;;;17.50;10.23;;;4.90;99.90;;;;;;5123450;27;20084;-80
2022/04/04 02:37:55;;;;;;;17.50;9.95;;;4.90;99.90;;;;;;5120602;27;20284;-79
2022/04/04 02:40:21;;;;;;;14.48;8.98;;;5.00;99.90;;;;;;5123705;27;20067;-79
2022/04/04 02:42:47;;;;;;;;;;;4.90;99.90;;;;;;5110117;28;20043;-79
2022/04/04 02:45:13;;;;;;;15.95;9.82;;;5.00;99.90;;;;;;5126946;27;19916;-79
2022/04/04 02:47:39;;;;;;;15.55;9.68;;;5.00;99.90;;;;;;5115462;27;20040;-79
2022/04/04 02:50:06;;;;;;;15.70;8.65;;;4.90;99.90;;;;;;5120536;27;20050;-78
2022/04/04 02:52:32;;;;;;;18.25;10.35;;;5.10;99.90;;;;;;5127562;27;20057;-79
2022/04/04 02:54:57;;;;;;;14.27;9.50;;;5.10;99.90;;;;;;5123534;27;20118;-79
2022/04/04 02:57:24;;;;;;;15.33;9.83;;;5.40;99.90;;;;;;5117220;27;20284;-78
2022/04/04 02:59:50;;;;;;;16.88;10.35;;;5.10;99.90;;;;;;5103449;27;20039;-79
2022/04/04 03:02:15;;;;;;;16.60;9.90;;;5.10;99.90;;;;;;5117204;27;20097;-79
2022/04/04 03:04:42;;;;;;;19.10;10.33;;;5.10;99.90;;;;;;5123258;27;20273;-79
2022/04/04 03:07:09;;;;;;;16.67;9.63;;;5.10;99.90;;;;;;5106209;28;20106;-78
2022/04/04 03:09:35;;;;;;;16.15;10.23;;;5.20;99.90;;;;;;5117723;27;20092;-79
2022/04/04 03:12:01;;;;;;;16.45;10.27;;;5.10;99.90;;;;;;5100554;28;20051;-79
2022/04/04 03:14:28;;;;;;;18.95;10.52;;;5.20;99.90;;;;;;5126217;27;20039;-79
2022/04/04 03:16:54;;;;;;;15.45;9.50;;;5.20;99.90;;;;;;5117567;27;20043;-79
2022/04/04 03:19:20;;;;;;;17.08;9.25;;;5.10;99.90;;;;;;5119079;27;20548;-78
2022/04/04 03:21:45;;;;;;;15.67;10.27;;;5.10;99.90;;;;;;5099535;28;20246;-78
2022/04/04 03:24:12;;;;;;;13.47;8.57;;;5.20;99.90;;;;;;5116051;27;20322;-78
2022/04/04 03:26:37;;;;;;;;;;;5.10;99.90;;;;;;5113200;28;20039;-79
2022/04/04 03:29:03;;;;;;;16.27;9.20;;;5.30;99.90;;;;;;5110039;28;19930;-79
2022/04/04 03:31:29;;;;;;;16.92;10.10;;;5.20;99.90;;;;;;5122850;27;20128;-78
2022/04/04 03:33:55;;;;;;;16.77;9.73;;;5.20;99.90;;;;;;5121032;28;20486;-79
2022/04/04 03:36:21;;;;;;;20.58;10.25;;;5.10;99.90;;;;;;5119307;28;20301;-78
2022/04/04 03:38:47;;;;;;;15.07;9.32;;;5.30;99.90;;;;;;5115800;28;20047;-79
2022/04/04 03:41:13;;;;;;;20.90;10.63;;;5.40;99.90;;;;;;5111735;28;20050;-79
2022/04/04 03:43:39;;;;;;;15.97;10.13;;;5.40;99.90;;;;;;5119866;28;20047;-79
2022/04/04 03:46:05;;;;;;;16.55;10.35;;;5.30;99.90;;;;;;5103622;28;20367;-79
2022/04/04 03:48:31;;;;;;;19.30;10.52;;;5.50;99.90;;;;;;5109280;28;20028;-80
2022/04/04 03:50:56;;;;;;;19.25;11.07;;;5.40;99.90;;;;;;5120195;28;20074;-79
2022/04/04 03:53:22;;;;;;;17.90;11.13;;;5.40;99.90;;;;;;5105145;28;20043;-79
2022/04/04 03:55:50;;;;;;;20.23;10.25;;;5.40;99.90;;;;;;5118696;28;20285;-79
2022/04/04 03:58:16;;;;;;;18.95;10.63;;;5.40;99.90;;;;;;5099439;28;20050;-79
2022/04/04 04:00:42;;;;;;;16.98;11.02;;;5.30;99.90;;;;;;5127626;27;20039;-79
2022/04/04 04:03:09;;;;;;;22.45;11.27;;;5.70;99.90;;;;;;5103881;27;20035;-79
2022/04/04 04:05:35;;;;;;;;;;;5.30;99.90;;;;;;5126643;27;20048;-78
2022/04/04 04:08:01;;;;;;;22.67;11.88;;;5.40;99.90;;;;;;5113732;27;19971;-78
2022/04/04 04:10:26;;;;;;;18.02;11.43;;;5.30;99.90;;;;;;5128583;27;20106;-78
2022/04/04 04:12:52;;;;;;;25.33;12.65;;;5.30;99.90;;;;;;5121878;27;20035;-79
2022/04/04 04:15:21;;;;;;;21.08;12.23;;;5.40;99.90;;;;;;5126063;27;20045;-80
2022/04/04 04:17:51;;;;;;;20.88;10.82;;;5.20;99.90;;;;;;5121917;27;20035;-79
2022/04/04 04:20:22;;;;;;;22.92;12.30;;;6.20;99.90;;;;;;5104232;27;20055;-79
2022/04/04 04:22:50;;;;;;;22.63;13.27;;;5.40;99.90;;;;;;5130640;27;20073;-79
2022/04/04 04:25:16;;;;;;;19.98;12.45;;;5.30;99.90;;;;;;5120971;27;20035;-79
2022/04/04 04:27:43;;;;;;;24.80;13.20;;;5.20;99.90;;;;;;5106526;28;20039;-80
2022/04/04 04:30:10;;;;;;;21.92;12.43;;;5.20;99.90;;;;;;5120557;27;20039;-80
2022/04/04 04:32:35;;;;;;;22.20;13.55;;;5.10;99.90;;;;;;5126163;27;20039;-80
2022/04/04 04:35:01;;;;;;;23.20;14.83;;;5.00;99.90;;;;;;5124704;27;20050;-80
2022/04/04 04:37:27;;;;;;;25.00;14.48;;;5.40;99.90;;;;;;5125793;27;20498;-80
2022/04/04 04:39:53;;;;;;;21.23;13.07;;;5.20;99.90;;;;;;5123141;27;20035;-79
2022/04/04 04:42:18;;;;;;;29.42;13.85;;;5.20;99.90;;;;;;5115717;27;20043;-79
2022/04/04 04:44:45;;;;;;;26.30;14.23;;;5.20;99.90;;;;;;5117168;27;20035;-80
2022/04/04 04:47:11;;;;;;;25.20;13.50;;;5.10;99.90;;;;;;5122999;27;20039;-80
2022/04/04 04:49:37;;;;;;;27.55;14.57;;;5.10;99.90;;;;;;5128102;27;20062;-79
2022/04/04 04:52:03;;;;;;;19.48;11.80;;;5.10;99.90;;;;;;5128105;27;20077;-78
2022/04/04 04:54:32;;;;;;;22.45;13.60;;;5.40;99.90;;;;;;5125433;27;20118;-79
2022/04/04 04:56:58;;;;;;;25.90;12.90;;;5.20;99.90;;;;;;5118494;27;20039;-79
2022/04/04 04:59:24;;;;;;;28.25;13.05;;;5.30;99.90;;;;;;5122060;27;20166;-79
2022/04/04 05:01:50;;;;;;;24.98;12.73;;;5.30;99.90;;;;;;5118251;27;20074;-79
2022/04/04 05:04:16;;;;;;;28.67;13.73;;;5.30;99.90;;;;;;5127993;27;20038;-80
2022/04/04 05:06:41;;;;;;;24.33;12.73;;;5.30;99.90;;;;;;5122567;27;20531;-79
2022/04/04 05:09:07;;;;;;;24.02;12.63;;;5.20;99.90;;;;;;5122822;27;20471;-79
2022/04/04 05:11:33;;;;;;;23.53;13.13;;;5.40;99.90;;;;;;5109193;28;20054;-79
2022/04/04 05:13:58;;;;;;;28.50;14.63;;;5.50;99.90;;;;;;5127344;27;20609;-78
2022/04/04 05:16:28;;;;;;;23.10;13.40;;;5.20;99.90;;;;;;5121866;27;20073;-80
2022/04/04 05:18:57;;;;;;;26.55;13.80;;;5.40;99.90;;;;;;5125273;27;20046;-80
2022/04/04 05:21:23;;;;;;;31.48;13.70;;;5.30;99.90;;;;;;5127349;27;20050;-79
2022/04/04 05:23:49;;;;;;;24.95;13.90;;;5.40;99.90;;;;;;5114866;27;20051;-79
2022/04/04 05:26:15;;;;;;;28.05;14.38;;;5.40;99.90;;;;;;5119423;27;20047;-80
2022/04/04 05:28:40;;;;;;;17.87;10.07;;;5.30;99.90;;;;;;5123864;27;20039;-80
2022/04/04 05:31:06;;;;;;;26.50;14.73;;;5.30;99.90;;;;;;5117087;27;20288;-80
2022/04/04 05:33:32;;;;;;;25.88;14.80;;;5.30;99.90;;;;;;5122585;27;20140;-80
2022/04/04 05:35:58;;;;;;;19.25;11.00;;;5.20;99.90;;;;;;5118477;27;20486;-80
2022/04/04 05:38:23;;;;;;;21.92;12.10;;;5.30;99.90;;;;;;5125840;27;20052;-80
2022/04/04 05:40:49;;;;;;;22.70;11.57;;;5.50;99.90;;;;;;5106580;28;20032;-80
2022/04/04 05:43:15;;;;;;;19.70;10.53;;;5.30;99.90;;;;;;5116509;27;20799;-79
2022/04/04 05:45:40;;;;;;;18.60;9.50;;;5.20;99.90;;;;;;5121214;27;20077;-79
2022/04/04 05:48:07;;;;;;;14.82;8.63;;;5.30;99.90;;;;;;5102096;27;20142;-80
2022/04/04 05:50:34;;;;;;;19.63;10.25;;;5.30;99.90;;;;;;5103801;28;20547;-79
2022/04/04 05:52:59;;;;;;;17.08;9.45;;;5.30;99.90;;;;;;5102020;28;20042;-80
2022/04/04 05:55:25;;;;;;;18.47;9.30;;;5.30;99.90;;;;;;5090332;28;20365;-79
2022/04/04 05:57:51;;;;;;;15.05;8.50;;;5.30;99.90;;;;;;5084074;28;20035;-80
2022/04/04 06:00:17;;;;;;;13.43;8.50;;;5.20;99.90;;;;;;5102511;27;20035;-80
2022/04/04 06:02:45;;;;;;;13.95;8.10;;;5.20;99.90;;;;;;5097709;27;20446;-80
2022/04/04 06:05:11;;;;;;;12.60;8.15;;;5.20;99.90;;;;;;5118527;27;20472;-80
2022/04/04 06:07:38;;;;;;;10.00;6.43;;;5.20;99.90;;;;;;5100405;27;20039;-80
2022/04/04 06:10:08;;;;;;;9.82;6.47;;;5.20;99.90;;;;;;5113558;27;20027;-80
2022/04/04 06:12:40;;;;;;;8.32;4.60;;;5.30;99.90;;;;;;5115309;27;20061;-80
2022/04/04 06:15:06;;;;;;;9.70;4.78;;;5.20;99.90;;;;;;5109159;27;20406;-80
2022/04/04 06:17:32;;;;;;;10.57;5.03;;;5.30;99.90;;;;;;5118545;27;20089;-79
2022/04/04 06:19:58;;;;;;;7.88;4.60;;;5.10;99.90;;;;;;5116092;27;20568;-79
2022/04/04 06:22:25;;;;;;;6.53;4.68;;;5.20;99.90;;;;;;5115712;27;20077;-79
2022/04/04 06:24:51;;;;;;;9.45;4.10;;;5.10;99.90;;;;;;5118410;27;20115;-80
2022/04/04 06:27:17;;;;;;;9.07;4.97;;;5.10;99.90;;;;;;5111166;27;20039;-78
2022/04/04 06:29:43;;;;;;;10.93;4.78;;;5.00;99.90;;;;;;5114199;27;20051;-80
2022/04/04 06:32:11;;;;;;;9.63;3.90;;;5.20;99.90;;;;;;5105091;27;20119;-80
2022/04/04 06:34:38;;;;;;;6.70;4.18;;;5.00;99.90;;;;;;5093496;28;20074;-80
2022/04/04 06:37:09;;;;;;;6.45;3.80;;;5.10;99.90;;;;;;5119262;27;20055;-80
2022/04/04 06:39:35;;;;;;;8.20;3.78;;;5.10;99.90;;;;;;5115124;27;20046;-79
2022/04/04 06:42:02;;;;;;;5.60;3.65;;;5.10;99.90;;;;;;5110708;27;20051;-79
2022/04/04 06:44:28;;;;;;;6.90;3.38;;;5.10;99.90;;;;;;5106597;27;20042;-80
2022/04/04 06:46:56;;;;;;;7.38;3.88;;;5.20;99.90;;;;;;5120179;27;20250;-79
2022/04/04 06:49:22;;;;;;;7.68;3.80;;;5.50;99.90;;;;;;5116762;27;20411;-78
2022/04/04 06:51:51;;;;;;;7.05;4.35;;;5.20;99.90;;;;;;5089033;28;20559;-80
2022/04/04 06:54:18;;;;;;;9.70;4.68;;;5.20;99.90;;;;;;5117493;27;20058;-79
2022/04/04 06:56:49;;;;;;;8.82;5.05;;;5.10;99.90;;;;;;5087920;28;20048;-79
2022/04/04 06:59:16;;;;;;;7.80;4.40;;;5.10;99.90;;;;;;5100943;27;20039;-79
2022/04/04 07:01:43;;;;;;;7.45;4.75;;;5.40;99.90;;;;;;5119279;27;20124;-80
2022/04/04 07:04:10;;;;;;;8.60;4.90;;;5.10;99.90;;;;;;5097110;27;20039;-80
2022/04/04 07:06:36;;;;;;;8.68;4.63;;;5.10;99.90;;;;;;5107613;27;20352;-79
2022/04/04 07:09:02;;;;;;;8.15;5.38;;;5.10;99.90;;;;;;5082338;28;20119;-79
2022/04/04 07:11:29;;;;;;;10.15;5.43;;;5.20;99.90;;;;;;5103349;27;20035;-79
2022/04/04 07:13:55;;;;;;;9.15;4.80;;;5.20;99.90;;;;;;5113899;27;20031;-79
2022/04/04 07:16:21;;;;;;;9.38;5.70;;;5.70;99.90;;;;;;5121024;27;20031;-79
2022/04/04 07:18:48;;;;;;;12.55;6.20;;;5.30;99.90;;;;;;5115868;28;20500;-79
2022/04/04 07:21:15;;;;;;;10.57;6.47;;;5.20;99.90;;;;;;5113794;27;20460;-79
2022/04/04 07:23:41;;;;;;;;;;;5.30;99.90;;;;;;5095044;28;20043;-79
2022/04/04 07:26:06;;;;;;;9.80;6.95;;;5.40;99.90;;;;;;5112359;28;20359;-79
2022/04/04 07:28:32;;;;;;;10.07;6.20;;;5.50;99.90;;;;;;5107049;28;20043;-79
2022/04/04 07:30:58;;;;;;;13.20;8.05;;;5.50;99.90;;;;;;5119902;28;20043;-79
2022/04/04 07:33:24;;;;;;;13.00;7.55;;;5.40;99.90;;;;;;5116378;28;20046;-79
2022/04/04 07:35:50;;;;;;;9.30;7.13;;;5.50;99.90;;;;;;5119459;27;20503;-79
2022/04/04 07:38:16;;;;;;;15.50;8.55;;;5.60;99.90;;;;;;5103721;27;20039;-79
2022/04/04 07:40:42;;;;;;;13.68;8.20;;;5.60;99.90;;;;;;5118068;27;20043;-79
2022/04/04 07:43:08;;;;;;;17.17;9.73;;;5.60;99.90;;;;;;5119355;27;20035;-79
2022/04/04 07:45:34;;;;;;;16.63;8.52;;;5.50;99.90;;;;;;5120011;27;20050;-79
2022/04/04 07:48:01;;;;;;;12.60;7.63;;;5.60;99.90;;;;;;5122022;27;20359;-80
2022/04/04 07:50:27;;;;;;;15.45;9.02;;;5.60;99.90;;;;;;5122558;27;20408;-79
2022/04/04 07:52:53;;;;;;;16.42;9.60;;;5.60;99.90;;;;;;5094647;28;20126;-80
2022/04/04 07:55:19;;;;;;;16.42;9.88;;;5.60;99.90;;;;;;5114588;27;20050;-79
2022/04/04 07:57:45;;;;;;;17.25;9.00;;;5.70;99.90;;;;;;5113810;27;20039;-79
2022/04/04 08:00:14;;;;;;;17.38;9.75;;;5.60;99.90;;;;;;5105455;27;20463;-80
2022/04/04 08:02:40;;;;;;;13.88;8.63;;;5.70;99.90;;;;;;5108451;27;20144;-79
2022/04/04 08:05:08;;;;;;;16.45;9.90;;;5.70;99.90;;;;;;5099774;27;20035;-80
2022/04/04 08:07:34;;;;;;;12.63;8.18;;;5.60;99.90;;;;;;5100785;27;20035;-79
2022/04/04 08:09:59;;;;;;;16.00;8.68;;;5.70;99.90;;;;;;5116194;27;20356;-79
2022/04/04 08:12:29;;;;;;;16.87;9.27;;;5.70;99.90;;;;;;5114863;27;20132;-79
2022/04/04 08:14:54;;;;;;;17.52;8.30;;;5.70;99.90;;;;;;5120701;27;20035;-79
2022/04/04 08:17:20;;;;;;;11.75;8.52;;;5.80;99.90;;;;;;5097656;28;20047;-79
2022/04/04 08:19:46;;;;;;;15.43;8.82;;;5.80;99.90;;;;;;5120965;27;20039;-77
2022/04/04 08:22:12;;;;;;;12.85;8.18;;;5.80;99.90;;;;;;5112223;27;20047;-79
2022/04/04 08:24:38;;;;;;;13.80;8.27;;;5.90;99.90;;;;;;5113497;27;20410;-79
2022/04/04 08:27:04;;;;;;;14.27;7.50;;;6.30;99.90;;;;;;5097652;27;20047;-79
2022/04/04 08:29:30;;;;;;;11.43;7.40;;;6.00;99.90;;;;;;5122459;27;20046;-79
2022/04/04 08:31:56;;;;;;;10.87;6.80;;;6.00;99.90;;;;;;5116656;27;20042;-79
2022/04/04 08:34:21;;;;;;;9.83;6.00;;;6.10;99.90;;;;;;5124371;27;20408;-79
2022/04/04 08:36:47;;;;;;;10.80;6.70;;;6.00;99.90;;;;;;5111628;27;20330;-80
2022/04/04 08:39:13;;;;;;;9.33;6.73;;;6.10;99.90;;;;;;5115239;27;20329;-79
2022/04/04 08:41:39;;;;;;;9.40;5.95;;;6.10;99.90;;;;;;5116442;27;20293;-80
2022/04/04 08:44:05;;;;;;;7.78;5.45;;;6.10;99.90;;;;;;5102618;28;20031;-79
2022/04/04 08:46:33;;;;;;;7.43;4.95;;;6.20;99.90;;;;;;5113137;27;20047;-79
2022/04/04 08:49:04;;;;;;;9.52;5.68;;;6.30;99.90;;;;;;5102266;28;20036;-79
2022/04/04 08:51:30;;;;;;;8.18;5.28;;;6.20;99.90;;;;;;5111307;27;20047;-79
2022/04/04 08:53:56;;;;;;;;;;;6.30;99.90;;;;;;5114198;27;20042;-78
2022/04/04 08:56:25;;;;;;;8.50;5.13;;;6.30;99.90;;;;;;5114074;27;19923;-79
2022/04/04 08:58:52;;;;;;;8.55;4.85;;;6.30;99.90;;;;;;5094357;27;20028;-79
2022/04/04 09:01:19;;;;;;;5.90;4.43;;;6.30;99.90;;;;;;5120456;27;20023;-79
2022/04/04 09:03:45;;;;;;;9.38;4.97;;;6.30;99.90;;;;;;5113875;27;20502;-79
2022/04/04 09:06:11;;;;;;;8.45;4.28;;;6.30;99.90;;;;;;5113371;27;20043;-78
2022/04/04 09:08:44;;;;;;;6.63;3.73;;;6.40;99.90;;;;;;5111683;27;20123;-79
2022/04/04 09:11:11;;;;;;;6.05;4.70;;;6.50;99.90;;;;;;5120754;27;20605;-79
2022/04/04 09:13:37;;;;;;;;;;;6.40;99.90;;;;;;5104199;27;20340;-78
2022/04/04 09:16:04;;;;;;;7.18;4.20;;;6.40;99.90;;;;;;5118442;27;20077;-79
2022/04/04 09:18:41;;;;;;;6.43;3.72;;;6.50;99.90;;;;;;5127065;27;20047;-79
2022/04/04 09:21:31;;;;;;;4.87;3.17;;;6.50;99.90;;;;;;5126529;27;20047;-78
2022/04/04 09:23:59;;;;;;;4.80;3.53;;;6.80;99.90;;;;;;5129596;27;20650;-79
2022/04/04 09:26:40;;;;;;;4.47;3.38;;;6.60;99.90;;;;;;5123226;27;20050;-79
2022/04/04 09:29:06;;;;;;;6.32;4.22;;;6.50;99.90;;;;;;5129906;27;20160;-79
2022/04/04 09:31:32;;;;;;;4.83;3.10;;;6.60;99.90;;;;;;5130213;27;20553;-79
2022/04/04 09:34:00;;;;;;;6.55;3.60;;;6.50;99.90;;;;;;5120508;27;20269;-78
2022/04/04 09:36:26;;;;;;;6.03;3.45;;;6.50;99.90;;;;;;5112086;27;20438;-77
2022/04/04 09:39:09;;;;;;;5.13;3.53;;;7.50;99.90;;;;;;5109286;27;20068;-78
2022/04/04 09:41:36;;;;;;;5.43;3.72;;;6.70;99.90;;;;;;5130104;27;20288;-78
2022/04/04 09:44:04;;;;;;;5.53;3.35;;;6.70;99.90;;;;;;5117309;27;20122;-78
2022/04/04 09:46:32;;;;;;;5.47;3.50;;;6.60;99.90;;;;;;5114808;27;20547;-78
2022/04/04 09:49:05;;;;;;;6.75;3.75;;;6.60;99.90;;;;;;5101408;28;20114;-78
2022/04/04 09:51:42;;;;;;;6.30;3.63;;;6.60;99.90;;;;;;5115048;27;20031;-78
2022/04/04 09:54:17;;;;;;;7.47;4.03;;;6.70;99.90;;;;;;5121022;27;20036;-79
2022/04/04 09:56:46;;;;;;;7.68;4.28;;;6.70;99.90;;;;;;5127297;27;20047;-78
2022/04/04 09:59:15;;;;;;;7.35;4.20;;;6.80;99.90;;;;;;5106438;28;20035;-78
2022/04/04 10:01:45;;;;;;;5.75;3.67;;;6.80;99.90;;;;;;5102937;28;20032;-79
2022/04/04 10:04:12;;;;;;;6.80;3.83;;;6.80;99.90;;;;;;5125613;27;20046;-79
2022/04/04 10:06:40;;;;;;;6.10;3.67;;;6.80;99.90;;;;;;5127942;27;20134;-79
2022/04/04 10:09:06;;;;;;;6.60;3.92;;;6.90;99.90;;;;;;5129987;27;20035;-79
2022/04/04 10:11:35;;;;;;;8.02;3.90;;;6.80;99.90;;;;;;5112568;27;20088;-79
2022/04/04 10:14:02;;;;;;;5.65;3.55;;;6.90;99.90;;;;;;5120239;27;20035;-79
2022/04/04 10:16:30;;;;;;;5.88;3.80;;;6.90;99.90;;;;;;5127633;27;20039;-79
2022/04/04 10:18:57;;;;;;;5.95;3.13;;;6.80;99.90;;;;;;5082055;27;20077;-79
2022/04/04 10:21:25;;;;;;;6.35;3.50;;;6.80;99.90;;;;;;5103579;27;20055;-79
2022/04/04 10:23:55;;;;;;;5.78;3.40;;;6.90;99.90;;;;;;5117620;27;20031;-79
2022/04/04 10:26:30;;;;;;;6.22;3.33;;;6.90;99.90;;;;;;5115572;27;20031;-78
2022/04/04 10:29:14;;;;;;;7.63;3.13;;;7.00;99.90;;;;;;5128648;27;20526;-79
2022/04/04 10:31:51;;;;;;;6.60;3.55;;;7.00;99.90;;;;;;5113185;27;20046;-79
2022/04/04 10:34:20;;;;;;;4.55;3.42;;;7.00;99.90;;;;;;5126844;27;20035;-78
2022/04/04 10:36:57;;;;;;;4.97;3.75;;;7.10;99.90;;;;;;5117482;27;20044;-79
2022/04/04 10:39:48;;;;;;;8.48;3.78;;;7.00;99.90;;;;;;5121375;27;20031;-79
2022/04/04 10:42:43;;;;;;;6.90;3.60;;;7.10;99.90;;;;;;5102133;27;20039;-79
2022/04/04 10:45:15;;;;;;;4.43;3.30;;;7.20;99.90;;;;;;5080725;27;20069;-79
2022/04/04 10:47:43;;;;;;;4.45;3.70;;;7.20;99.90;;;;;;5120995;27;20124;-78
2022/04/04 10:50:29;;;;;;;6.28;3.70;;;7.10;99.90;;;;;;5118922;27;20118;-79
2022/04/04 10:52:59;;;;;;;5.13;3.20;;;7.20;99.90;;;;;;5107765;28;20490;-79
2022/04/04 10:55:29;;;;;;;6.90;3.30;;;7.30;99.90;;;;;;5120613;27;20031;-80
2022/04/04 10:58:11;;;;;;;9.43;3.58;;;7.20;99.90;;;;;;5115773;27;20051;-80
2022/04/04 11:00:58;;;;;;;3.85;2.92;;;7.20;99.90;;;;;;5121754;27;20047;-80
2022/04/04 11:03:37;;;;;;;5.38;2.65;;;7.20;99.90;;;;;;5122851;27;20049;-80
2022/04/04 11:09:11;;;;;;;4.72;2.70;;;7.20;99.90;;;;;;5113924;27;20074;-80
2022/04/04 11:11:41;;;;;;;4.60;2.60;;;7.20;99.90;;;;;;5115930;27;20491;-79
2022/04/04 11:14:08;;;;;;;6.45;2.60;;;7.20;99.90;;;;;;5116018;27;20027;-80
2022/04/04 11:17:08;;;;;;;4.90;3.08;;;7.30;99.90;;;;;;5116166;27;20499;-80
2022/04/04 11:19:47;;;;;;;3.25;2.28;;;7.30;99.90;;;;;;5116798;27;20138;-79
2022/04/04 11:22:16;;;;;;;2.72;2.10;;;7.40;99.90;;;;;;5116658;27;20116;-79
2022/04/04 11:24:44;;;;;;;4.38;2.60;;;7.30;99.90;;;;;;5118287;27;20078;-79
2022/04/04 11:27:10;;;;;;;3.05;1.70;;;7.40;99.90;;;;;;5119698;28;20098;-80
2022/04/04 11:29:39;;;;;;;3.38;1.88;;;7.40;99.90;;;;;;5114433;28;20858;-80
2022/04/04 11:32:07;;;;;;;2.40;1.40;;;7.50;99.90;;;;;;5118195;28;20078;-80
2022/04/04 11:34:36;;;;;;;3.00;1.50;;;7.60;99.90;;;;;;5093955;28;20040;-79
2022/04/04 11:37:04;;;;;;;2.83;1.55;;;7.60;99.90;;;;;;5115539;28;20043;-80
2022/04/04 11:39:30;;;;;;;2.88;1.50;;;7.60;99.90;;;;;;5112607;28;20059;-79
2022/04/04 11:41:56;;;;;;;2.10;1.30;;;7.60;99.90;;;;;;5120704;28;20035;-79
2022/04/04 11:44:34;;;;;;;2.03;1.20;;;7.70;99.90;;;;;;5101529;28;20372;-79
2022/04/04 11:47:08;;;;;;;2.05;1.40;;;7.70;99.90;;;;;;5115277;28;20051;-80
2022/04/04 11:49:39;;;;;;;1.90;1.08;;;7.70;99.90;;;;;;5103890;28;20092;-80
2022/04/04 11:52:07;;;;;;;1.42;1.20;;;7.80;99.90;;;;;;5125550;27;20055;-80
2022/04/04 11:54:40;;;;;;;2.35;1.27;;;7.70;99.90;;;;;;5085642;28;20047;-78
2022/04/04 11:57:08;;;;;;;2.15;1.45;;;7.70;99.90;;;;;;5109929;28;20043;-79
2022/04/04 11:59:42;;;;;;;3.58;1.17;;;7.70;99.90;;;;;;5115299;28;20085;-79
2022/04/04 12:02:09;;;;;;;2.17;1.10;;;7.70;99.90;;;;;;5112498;27;20043;-80
2022/04/04 12:04:39;;;;;;;3.55;1.15;;;7.70;99.90;;;;;;5111478;28;20035;-80
2022/04/04 12:07:06;;;;;;;1.55;1.00;;;7.80;99.90;;;;;;5119949;28;20099;-80
2022/04/04 12:09:36;;;;;;;1.45;0.93;;;7.90;99.90;;;;;;5090320;28;20396;-81
2022/04/04 12:12:10;;;;;;;1.33;1.00;;;7.90;99.90;;;;;;5113664;28;20106;-77
2022/04/04 12:14:38;;;;;;;1.48;1.00;;;7.90;99.90;;;;;;5118622;28;20065;-79
2022/04/04 12:17:05;;;;;;;1.90;1.02;;;8.00;99.90;;;;;;5116763;28;20424;-79
2022/04/04 12:19:31;;;;;;;2.45;1.27;;;8.10;99.90;;;;;;5106746;28;20043;-79
2022/04/04 12:21:58;;;;;;;2.03;0.95;;;7.90;99.90;;;;;;5111554;27;20079;-79
2022/04/04 12:27:15;;;;;;;1.85;0.98;;;7.70;99.90;;;;;;5118019;27;20511;-78
2022/04/04 12:29:45;;;;;;;1.00;0.90;;;8.00;99.90;;;;;;5103736;28;20039;-79
2022/04/04 12:32:19;;;;;;;1.95;1.10;;;8.10;99.90;;;;;;5079136;28;20035;-79
2022/04/04 12:35:14;;;;;;;1.27;1.10;;;8.10;99.90;;;;;;5096099;28;20457;-79
2022/04/04 12:37:42;;;;;;;1.48;1.10;;;8.30;99.90;;;;;;5085836;27;20418;-79
2022/04/04 12:40:18;;;;;;;1.58;0.98;;;8.20;99.90;;;;;;5129092;27;20047;-79
2022/04/04 12:42:46;;;;;;;1.60;0.98;;;8.20;99.90;;;;;;5125511;27;20774;-80
2022/04/04 12:45:11;;;;;;;1.83;0.93;;;8.30;99.90;;;;;;5113865;27;20070;-79
2022/04/04 12:48:01;;;;;;;1.25;1.00;;;8.30;99.90;;;;;;5118256;27;20066;-80
2022/04/04 12:50:48;;;;;;;1.30;1.15;;;8.30;99.90;;;;;;5126881;27;20050;-78
2022/04/04 12:53:16;;;;;;;1.63;1.17;;;8.40;99.90;;;;;;5122510;27;20127;-80
2022/04/04 12:55:44;;;;;;;1.63;1.30;;;8.40;99.90;;;;;;5108930;27;20388;-80
2022/04/04 12:58:23;;;;;;;2.05;1.20;;;8.50;99.90;;;;;;5129336;27;20070;-79
2022/04/04 13:00:50;;;;;;;2.35;1.40;;;8.40;99.90;;;;;;5121686;27;20031;-80
2022/04/04 13:03:27;;;;;;;1.88;1.40;;;8.50;99.90;;;;;;5116690;27;20074;-80